Time;durP1;ratioP1;P1;durP2;ratioP2;P2;SDS_P1;SDS_P2;PMS_P1;PMS_P2;Temp;Humidity;BMP_temperature;BMP_pressure;BME280_temperature;BME280_humidity;BME280_pressure;Samples;Min_cycle;Max_cycle;Signal;HPM_P1;HPM_P2
2022/03/19 00:00:22;;;;;;;52.63;34.72;;;7.30;99.90;;;;;;5041150;28;20126;-78
2022/03/19 00:02:48;;;;;;;54.45;32.88;;;7.30;99.90;;;;;;5043332;28;20410;-79
2022/03/19 00:05:14;;;;;;;57.50;35.05;;;7.30;99.90;;;;;;5041402;28;20040;-78
2022/03/19 00:07:40;;;;;;;55.92;34.03;;;7.20;99.90;;;;;;5041696;28;20405;-78
2022/03/19 00:10:08;;;;;;;56.70;33.72;;;7.30;99.90;;;;;;5042003;28;20539;-76
2022/03/19 00:12:35;;;;;;;55.15;34.75;;;7.30;99.90;;;;;;5042237;28;20049;-78
2022/03/19 00:15:01;;;;;;;57.25;34.60;;;7.20;99.90;;;;;;5042383;28;20057;-73
2022/03/19 00:17:27;;;;;;;52.00;34.72;;;7.30;99.90;;;;;;5041721;28;20037;-78
2022/03/19 00:19:53;;;;;;;54.88;33.83;;;7.30;99.90;;;;;;5032566;28;20083;-78
2022/03/19 00:22:18;;;;;;;57.30;33.97;;;7.30;99.90;;;;;;5039594;28;20076;-71
2022/03/19 00:24:45;;;;;;;56.88;36.03;;;7.30;99.90;;;;;;5038256;28;20095;-73
2022/03/19 00:27:11;;;;;;;60.63;35.22;;;7.30;99.90;;;;;;5036737;28;20045;-72
2022/03/19 00:29:36;;;;;;;53.55;34.20;;;7.30;99.90;;;;;;5038795;28;20065;-76
2022/03/19 00:32:02;;;;;;;56.38;35.53;;;7.20;99.90;;;;;;5033747;28;20064;-78
2022/03/19 00:34:28;;;;;;;60.00;37.05;;;7.20;99.90;;;;;;5040996;28;20052;-78
2022/03/19 00:36:56;;;;;;;52.97;34.42;;;7.30;99.90;;;;;;5042753;28;20119;-78
2022/03/19 00:39:21;;;;;;;59.28;35.58;;;7.20;99.90;;;;;;5041794;28;20549;-75
2022/03/19 00:41:47;;;;;;;54.78;34.78;;;7.20;99.90;;;;;;5040800;28;20045;-73
2022/03/19 00:44:13;;;;;;;56.25;35.65;;;7.20;99.90;;;;;;5042512;28;20076;-78
2022/03/19 00:46:38;;;;;;;52.47;33.35;;;7.20;99.90;;;;;;5040843;28;20030;-78
2022/03/19 00:49:04;;;;;;;58.40;35.67;;;7.10;99.90;;;;;;5041333;28;20041;-77
2022/03/19 00:51:32;;;;;;;61.33;35.88;;;7.10;99.90;;;;;;5043550;28;20048;-77
2022/03/19 00:53:58;;;;;;;54.75;34.63;;;7.10;99.90;;;;;;5040801;28;20052;-72
2022/03/19 00:56:23;;;;;;;54.28;35.03;;;7.10;99.90;;;;;;5041602;28;20038;-78
2022/03/19 00:58:49;;;;;;;55.50;34.63;;;7.00;99.90;;;;;;5040206;28;20045;-78
2022/03/19 01:01:15;;;;;;;59.70;34.58;;;7.00;99.90;;;;;;5039648;28;20037;-78
2022/03/19 01:03:41;;;;;;;56.55;36.58;;;6.90;99.90;;;;;;5041344;28;20045;-78
2022/03/19 01:06:07;;;;;;;55.55;35.60;;;7.00;99.90;;;;;;5041776;28;20037;-77
2022/03/19 01:08:33;;;;;;;55.97;35.03;;;7.00;99.90;;;;;;5040143;28;20060;-75
2022/03/19 01:10:59;;;;;;;53.35;34.15;;;6.90;99.90;;;;;;5041793;28;20029;-78
2022/03/19 01:13:25;;;;;;;55.30;35.03;;;7.00;99.90;;;;;;5041717;28;20046;-77
2022/03/19 01:15:51;;;;;;;56.80;35.47;;;6.90;99.90;;;;;;5022142;28;20056;-72
2022/03/19 01:18:17;;;;;;;57.03;34.53;;;6.90;99.90;;;;;;5042269;28;20060;-77
2022/03/19 01:20:43;;;;;;;54.97;35.47;;;6.70;99.90;;;;;;5041431;28;20037;-78
2022/03/19 01:23:09;;;;;;;55.88;35.30;;;6.70;99.90;;;;;;5040352;28;20041;-74
2022/03/19 01:25:35;;;;;;;57.60;35.22;;;6.80;99.90;;;;;;5042210;28;20489;-78
2022/03/19 01:28:00;;;;;;;60.97;37.13;;;6.70;99.90;;;;;;5043750;28;20515;-78
2022/03/19 01:30:26;;;;;;;56.40;34.63;;;6.80;99.90;;;;;;5044442;28;20135;-78
2022/03/19 01:32:52;;;;;;;59.67;35.38;;;6.80;99.90;;;;;;5043112;28;20044;-78
2022/03/19 01:35:19;;;;;;;57.80;35.92;;;6.80;99.90;;;;;;5045625;28;20127;-78
2022/03/19 01:37:45;;;;;;;57.22;36.45;;;6.90;99.90;;;;;;5045403;28;20122;-78
2022/03/19 01:40:13;;;;;;;59.33;37.22;;;6.80;99.90;;;;;;5044030;28;20578;-78
2022/03/19 01:42:44;;;;;;;60.80;36.15;;;6.70;99.90;;;;;;5045623;28;20040;-78
2022/03/19 01:45:11;;;;;;;;;;;6.80;99.90;;;;;;5046305;28;20045;-78
2022/03/19 01:47:37;;;;;;;53.28;33.72;;;6.80;99.90;;;;;;5041615;28;19917;-77
2022/03/19 01:50:03;;;;;;;56.08;35.50;;;6.70;99.90;;;;;;5044722;28;20401;-78
2022/03/19 01:52:29;;;;;;;56.97;35.85;;;6.70;99.90;;;;;;5045686;28;20051;-78
2022/03/19 01:54:56;;;;;;;60.20;35.95;;;6.60;99.90;;;;;;5043670;28;20576;-76
2022/03/19 01:57:24;;;;;;;58.40;36.33;;;6.60;99.90;;;;;;5044815;28;20136;-77
2022/03/19 01:59:51;;;;;;;55.78;36.53;;;6.60;99.90;;;;;;5045558;28;20057;-77
2022/03/19 02:02:17;;;;;;;59.05;36.50;;;6.70;99.90;;;;;;5041193;28;20049;-74
2022/03/19 02:04:44;;;;;;;51.92;34.50;;;6.70;99.90;;;;;;5037972;28;20041;-77
2022/03/19 02:07:12;;;;;;;53.17;35.10;;;6.70;99.90;;;;;;5043397;28;20049;-74
2022/03/19 02:09:39;;;;;;;51.88;33.53;;;6.70;99.90;;;;;;5038824;28;20037;-78
2022/03/19 02:12:06;;;;;;;55.78;34.58;;;6.70;99.90;;;;;;5043961;28;20039;-77
2022/03/19 02:14:38;;;;;;;58.22;35.00;;;6.70;99.90;;;;;;5045115;28;20556;-77
2022/03/19 02:17:05;;;;;;;55.97;34.60;;;6.50;99.90;;;;;;5044284;28;20084;-76
2022/03/19 02:19:32;;;;;;;57.53;35.33;;;6.50;99.90;;;;;;5043365;28;20057;-76
2022/03/19 02:21:59;;;;;;;57.22;35.90;;;6.60;99.90;;;;;;5045136;28;20033;-76
2022/03/19 02:27:09;;;;;;;55.45;35.88;;;6.60;99.90;;;;;;5044095;28;20040;-77
2022/03/19 02:29:35;;;;;;;60.80;37.17;;;6.70;99.90;;;;;;5037760;28;20077;-73
2022/03/19 02:32:04;;;;;;;55.13;35.60;;;6.70;99.90;;;;;;5035358;28;20041;-78
2022/03/19 02:34:33;;;;;;;55.00;34.58;;;6.70;99.90;;;;;;5035289;28;20055;-78
2022/03/19 02:36:59;;;;;;;54.55;34.63;;;6.60;99.90;;;;;;5017203;28;20049;-72
2022/03/19 02:39:33;;;;;;;51.20;34.35;;;6.60;99.90;;;;;;5033937;28;20136;-74
2022/03/19 02:42:03;;;;;;;53.80;35.13;;;6.70;99.90;;;;;;5035041;28;20056;-78
2022/03/19 02:44:29;;;;;;;54.78;33.67;;;6.80;99.90;;;;;;5035152;28;20485;-75
2022/03/19 02:46:57;;;;;;;55.90;36.33;;;6.70;99.90;;;;;;5034639;28;20037;-77
2022/03/19 02:49:24;;;;;;;57.53;34.22;;;6.70;99.90;;;;;;5034843;28;20041;-74
2022/03/19 02:51:52;;;;;;;57.33;36.60;;;6.60;99.90;;;;;;5034603;28;20607;-74
2022/03/19 02:54:21;;;;;;;60.75;37.25;;;6.60;99.90;;;;;;5034555;28;20041;-72
2022/03/19 02:56:47;;;;;;;61.65;38.17;;;6.60;99.90;;;;;;5034479;28;20041;-78
2022/03/19 02:59:17;;;;;;;63.80;37.88;;;6.60;99.90;;;;;;5034554;28;20464;-77
2022/03/19 03:01:44;;;;;;;58.33;36.67;;;6.60;99.90;;;;;;5034357;28;20090;-74
2022/03/19 03:04:10;;;;;;;56.53;34.60;;;6.60;99.90;;;;;;5028151;28;20037;-77
2022/03/19 03:06:38;;;;;;;58.92;35.63;;;6.50;99.90;;;;;;5052894;28;20124;-78
2022/03/19 03:09:05;;;;;;;58.20;35.95;;;6.40;99.90;;;;;;5054306;28;20036;-73
2022/03/19 03:11:31;;;;;;;56.05;34.00;;;6.30;99.90;;;;;;5053570;28;20028;-75
2022/03/19 03:13:59;;;;;;;58.58;37.67;;;6.10;99.90;;;;;;5054369;28;20538;-77
2022/03/19 03:16:26;;;;;;;59.70;35.47;;;6.20;99.90;;;;;;5054535;28;20497;-72
2022/03/19 03:18:57;;;;;;;57.50;35.42;;;6.10;99.90;;;;;;5036565;28;20056;-75
2022/03/19 03:21:24;;;;;;;56.28;34.50;;;6.00;99.90;;;;;;5054211;28;20041;-72
2022/03/19 03:23:50;;;;;;;57.88;35.83;;;6.10;99.90;;;;;;5054209;28;20446;-73
2022/03/19 03:26:16;;;;;;;55.50;33.67;;;6.20;99.90;;;;;;5054056;28;20041;-75
2022/03/19 03:28:42;;;;;;;56.85;35.17;;;6.10;99.90;;;;;;5054188;28;20094;-76
2022/03/19 03:31:07;;;;;;;54.15;36.03;;;6.10;99.90;;;;;;5053990;28;20040;-74
2022/03/19 03:33:33;;;;;;;54.95;36.95;;;6.10;99.90;;;;;;5050970;28;20041;-76
2022/03/19 03:35:59;;;;;;;57.53;35.42;;;6.10;99.90;;;;;;5034261;28;20128;-75
2022/03/19 03:38:25;;;;;;;63.42;36.75;;;6.20;99.90;;;;;;5036573;28;20071;-75
2022/03/19 03:40:51;;;;;;;55.33;35.28;;;6.30;99.90;;;;;;5034161;28;20041;-77
2022/03/19 03:43:17;;;;;;;59.45;37.40;;;6.30;99.90;;;;;;5033804;28;20096;-77
2022/03/19 03:45:43;;;;;;;52.15;33.95;;;6.30;99.90;;;;;;5033875;28;20041;-77
2022/03/19 03:48:09;;;;;;;58.72;35.70;;;6.30;99.90;;;;;;5033850;28;20859;-75
2022/03/19 03:50:36;;;;;;;52.97;35.13;;;6.20;99.90;;;;;;5033759;28;20052;-73
2022/03/19 03:53:04;;;;;;;57.88;35.15;;;6.20;99.90;;;;;;5033683;28;20033;-76
2022/03/19 03:55:30;;;;;;;59.75;35.95;;;6.00;99.90;;;;;;5033544;28;20128;-76
2022/03/19 03:57:56;;;;;;;57.45;36.83;;;6.00;99.90;;;;;;5033656;28;20136;-76
2022/03/19 04:00:22;;;;;;;61.60;37.80;;;6.00;99.90;;;;;;5033568;28;20069;-76
2022/03/19 04:02:48;;;;;;;61.65;39.65;;;6.00;99.90;;;;;;5032994;28;20033;-73
2022/03/19 04:05:13;;;;;;;62.30;38.67;;;6.20;99.90;;;;;;5033564;28;20056;-74
2022/03/19 04:07:39;;;;;;;56.00;37.08;;;6.30;99.90;;;;;;5033534;28;20501;-78
2022/03/19 04:10:05;;;;;;;59.33;37.70;;;6.30;99.90;;;;;;5033604;28;20044;-77
2022/03/19 04:12:31;;;;;;;60.20;37.63;;;6.30;99.90;;;;;;5033429;28;20068;-76
2022/03/19 04:14:57;;;;;;;56.75;36.28;;;6.30;99.90;;;;;;5033366;28;20080;-77
2022/03/19 04:17:23;;;;;;;60.70;37.05;;;;;;;;;;5033299;28;20498;-73
2022/03/19 04:19:49;;;;;;;56.67;35.08;;;5.30;99.90;;;;;;5033293;28;20050;-78
2022/03/19 04:22:15;;;;;;;55.72;36.75;;;5.30;99.90;;;;;;5033265;28;20041;-78
2022/03/19 04:24:40;;;;;;;64.03;38.05;;;5.40;99.90;;;;;;5033268;28;20037;-79
2022/03/19 04:27:07;;;;;;;61.60;37.05;;;5.70;99.90;;;;;;5033198;28;20400;-78
2022/03/19 04:29:33;;;;;;;61.08;36.58;;;5.80;99.90;;;;;;5032937;28;20508;-78
2022/03/19 04:31:59;;;;;;;61.08;37.30;;;5.60;99.90;;;;;;5033159;28;20056;-78
2022/03/19 04:34:25;;;;;;;59.25;35.75;;;5.50;99.90;;;;;;5033269;28;20366;-77
2022/03/19 04:36:50;;;;;;;56.53;36.75;;;5.50;99.90;;;;;;5033012;28;20064;-78
2022/03/19 04:39:16;;;;;;;57.33;36.65;;;5.50;99.90;;;;;;5032648;28;20060;-77
2022/03/19 04:41:42;;;;;;;61.70;37.88;;;5.40;99.90;;;;;;5032812;28;20044;-75
2022/03/19 04:44:08;;;;;;;61.50;38.33;;;5.30;99.90;;;;;;5032977;28;20448;-74
2022/03/19 04:46:35;;;;;;;61.10;38.67;;;5.30;99.90;;;;;;5032953;28;20428;-77
2022/03/19 04:49:01;;;;;;;58.83;37.35;;;5.00;99.90;;;;;;5042268;28;20593;-76
2022/03/19 04:51:32;;;;;;;60.80;38.60;;;5.00;99.90;;;;;;5052565;28;20068;-76
2022/03/19 04:53:59;;;;;;;61.83;37.65;;;5.20;99.90;;;;;;5052536;28;20043;-78
2022/03/19 04:56:26;;;;;;;60.35;38.20;;;5.20;99.90;;;;;;5052615;28;20033;-72
2022/03/19 04:58:54;;;;;;;64.32;38.00;;;5.10;99.90;;;;;;5052665;28;20049;-77
2022/03/19 05:01:21;;;;;;;63.13;39.95;;;5.30;99.90;;;;;;5052220;28;20455;-77
2022/03/19 05:03:47;;;;;;;63.45;38.33;;;5.30;99.90;;;;;;5052315;28;20067;-78
2022/03/19 05:06:13;;;;;;;56.28;37.17;;;5.40;99.90;;;;;;5052482;28;20041;-75
2022/03/19 05:08:39;;;;;;;59.67;37.25;;;5.60;99.90;;;;;;5052367;28;20127;-77
2022/03/19 05:11:13;;;;;;;60.30;37.50;;;5.70;99.90;;;;;;5052530;28;20044;-77
2022/03/19 05:13:40;;;;;;;64.53;38.25;;;5.80;99.90;;;;;;5052292;28;20033;-78
2022/03/19 05:16:06;;;;;;;60.10;37.97;;;5.80;99.90;;;;;;5052318;28;20049;-78
2022/03/19 05:18:32;;;;;;;63.47;40.08;;;5.60;99.90;;;;;;5052515;28;20561;-78
2022/03/19 05:20:58;;;;;;;65.40;39.00;;;5.60;99.90;;;;;;5052544;28;20040;-72
2022/03/19 05:23:24;;;;;;;60.97;37.58;;;5.50;99.90;;;;;;5052372;28;20051;-77
2022/03/19 05:25:50;;;;;;;68.65;40.80;;;5.60;99.90;;;;;;5052093;28;20074;-78
2022/03/19 05:28:16;;;;;;;70.45;41.95;;;5.60;99.90;;;;;;5052555;28;20029;-75
2022/03/19 05:30:42;;;;;;;70.75;41.85;;;5.90;99.90;;;;;;5052523;28;20045;-75
2022/03/19 05:33:08;;;;;;;66.55;39.72;;;6.00;99.90;;;;;;5052405;28;20119;-73
2022/03/19 05:35:34;;;;;;;63.50;40.35;;;6.00;99.90;;;;;;5052486;28;20124;-79
2022/03/19 05:38:01;;;;;;;62.50;39.88;;;5.60;99.90;;;;;;5051975;28;20029;-78
2022/03/19 05:40:28;;;;;;;65.47;40.58;;;5.60;99.90;;;;;;5051874;28;20041;-78
2022/03/19 05:42:54;;;;;;;73.45;43.42;;;5.50;99.90;;;;;;5052427;28;20552;-78
2022/03/19 05:45:21;;;;;;;68.03;41.55;;;5.40;99.90;;;;;;5052556;28;20041;-75
2022/03/19 05:47:47;;;;;;;68.13;42.33;;;5.40;99.90;;;;;;5052148;28;20033;-75
2022/03/19 05:50:14;;;;;;;64.30;39.65;;;5.30;99.90;;;;;;5051852;28;20090;-77
2022/03/19 05:52:40;;;;;;;67.72;41.00;;;5.30;99.90;;;;;;5052082;28;20040;-75
2022/03/19 05:55:08;;;;;;;71.25;41.97;;;5.20;99.90;;;;;;5052227;28;20084;-77
2022/03/19 05:57:34;;;;;;;65.93;39.60;;;5.30;99.90;;;;;;5052247;28;20048;-71
2022/03/19 06:00:00;;;;;;;61.65;40.25;;;5.40;99.90;;;;;;5052031;28;20064;-76
2022/03/19 06:02:26;;;;;;;66.15;41.08;;;5.40;99.90;;;;;;5052097;28;20041;-72
2022/03/19 06:04:52;;;;;;;65.93;38.35;;;5.40;99.90;;;;;;5051854;28;20122;-77
2022/03/19 06:07:18;;;;;;;64.90;41.20;;;5.30;99.90;;;;;;5044680;28;20033;-74
2022/03/19 06:09:44;;;;;;;65.88;37.78;;;5.10;99.90;;;;;;5029334;28;20482;-76
2022/03/19 06:12:10;;;;;;;59.30;39.03;;;5.10;99.90;;;;;;5030168;28;20033;-78
2022/03/19 06:14:36;;;;;;;66.57;38.92;;;5.00;99.90;;;;;;5032501;28;20496;-74
2022/03/19 06:17:02;;;;;;;73.03;41.85;;;5.00;99.90;;;;;;5035384;28;20582;-74
2022/03/19 06:19:28;;;;;;;68.63;41.75;;;5.10;99.90;;;;;;5035291;28;20081;-78
2022/03/19 06:21:54;;;;;;;65.03;39.22;;;5.20;99.90;;;;;;5046857;28;20126;-78
2022/03/19 06:24:22;;;;;;;61.50;39.95;;;5.30;99.90;;;;;;5054715;28;20389;-76
2022/03/19 06:26:48;;;;;;;64.40;40.90;;;5.30;99.90;;;;;;5049531;28;20029;-75
2022/03/19 06:29:14;;;;;;;62.00;39.33;;;5.40;99.90;;;;;;5035228;28;20446;-75
2022/03/19 06:31:40;;;;;;;62.00;40.33;;;5.40;99.90;;;;;;5035257;28;20029;-77
2022/03/19 06:34:06;;;;;;;60.90;39.45;;;5.40;99.90;;;;;;5035294;28;20044;-75
2022/03/19 06:39:16;;;;;;;65.20;39.47;;;5.20;99.90;;;;;;5035198;28;20056;-75
2022/03/19 06:41:41;;;;;;;63.92;39.67;;;5.30;99.90;;;;;;5033867;28;20038;-74
2022/03/19 06:44:07;;;;;;;68.03;41.53;;;5.30;99.90;;;;;;5035248;28;20044;-72
2022/03/19 06:46:33;;;;;;;66.03;41.20;;;5.30;99.90;;;;;;5035096;28;20497;-74
2022/03/19 06:48:59;;;;;;;66.80;40.58;;;5.40;99.90;;;;;;5044092;28;20513;-77
2022/03/19 06:51:25;;;;;;;65.70;40.15;;;5.50;99.90;;;;;;5054756;28;20036;-72
2022/03/19 06:53:50;;;;;;;64.45;40.97;;;5.50;99.90;;;;;;5041005;28;20048;-78
2022/03/19 06:56:17;;;;;;;59.75;39.25;;;5.50;99.90;;;;;;5034763;28;20048;-75
2022/03/19 06:58:43;;;;;;;68.28;41.70;;;5.60;99.90;;;;;;5034626;28;20076;-73
2022/03/19 07:01:15;;;;;;;60.00;37.28;;;5.90;99.90;;;;;;5034721;28;20485;-77
2022/03/19 07:03:44;;;;;;;62.83;39.00;;;5.90;99.90;;;;;;5034487;28;20049;-78
2022/03/19 07:06:10;;;;;;;63.08;40.58;;;6.00;99.90;;;;;;5034433;28;20039;-78
2022/03/19 07:08:36;;;;;;;61.97;38.55;;;6.00;99.90;;;;;;5034506;28;20037;-78
2022/03/19 07:11:02;;;;;;;62.05;39.88;;;6.00;99.90;;;;;;5034444;28;20049;-78
2022/03/19 07:13:27;;;;;;;65.95;39.63;;;6.10;99.90;;;;;;5034492;28;20467;-77
2022/03/19 07:15:53;;;;;;;64.82;40.10;;;6.40;99.90;;;;;;5034424;28;20140;-80
2022/03/19 07:18:19;;;;;;;64.93;39.85;;;6.40;99.90;;;;;;5034029;28;20544;-76
2022/03/19 07:20:45;;;;;;;61.05;40.85;;;6.60;99.90;;;;;;5034117;28;20386;-74
2022/03/19 07:23:11;;;;;;;69.18;44.85;;;6.70;99.90;;;;;;5033942;28;20042;-75
2022/03/19 07:25:39;;;;;;;61.53;40.38;;;6.80;99.90;;;;;;5033603;28;20046;-77
2022/03/19 07:28:10;;;;;;;63.92;40.28;;;6.70;99.90;;;;;;5034455;28;20041;-73
2022/03/19 07:30:37;;;;;;;63.10;41.50;;;6.70;99.90;;;;;;5034168;28;20044;-77
2022/03/19 07:33:03;;;;;;;67.78;41.78;;;6.90;99.90;;;;;;5033814;28;20171;-77
2022/03/19 07:35:29;;;;;;;68.78;40.75;;;7.10;99.90;;;;;;5033601;28;20577;-72
2022/03/19 07:37:57;;;;;;;67.25;41.28;;;7.20;99.90;;;;;;5033948;28;20091;-71
2022/03/19 07:43:10;;;;;;;65.22;40.58;;;7.30;99.90;;;;;;5031999;28;20037;-71
2022/03/19 07:45:38;;;;;;;60.65;38.00;;;7.50;99.90;;;;;;5029842;28;20459;-76
2022/03/19 07:48:05;;;;;;;61.45;39.22;;;7.50;99.90;;;;;;5031053;28;20049;-75
2022/03/19 07:50:31;;;;;;;61.97;40.80;;;7.70;99.90;;;;;;5031889;28;20490;-75
2022/03/19 07:52:57;;;;;;;65.38;39.55;;;7.80;99.90;;;;;;5031531;28;20041;-75
2022/03/19 07:55:24;;;;;;;67.10;41.15;;;7.90;99.90;;;;;;5030935;28;20049;-72
2022/03/19 07:57:51;;;;;;;68.45;40.97;;;8.10;99.90;;;;;;5031334;28;20045;-79
2022/03/19 08:00:17;;;;;;;65.68;40.63;;;8.10;99.90;;;;;;5031155;28;20080;-76
2022/03/19 08:02:45;;;;;;;64.00;40.38;;;8.30;99.90;;;;;;5031836;28;20118;-78
2022/03/19 08:05:12;;;;;;;62.28;40.00;;;8.40;99.90;;;;;;5033315;28;20136;-77
2022/03/19 08:07:38;;;;;;;58.65;38.95;;;8.50;99.90;;;;;;5032338;28;20623;-84
2022/03/19 08:10:05;;;;;;;59.50;38.28;;;8.70;99.90;;;;;;5030994;28;20433;-81
2022/03/19 08:12:31;;;;;;;63.95;39.67;;;8.60;99.90;;;;;;5031513;28;20049;-77
2022/03/19 08:14:59;;;;;;;62.67;38.15;;;8.70;99.90;;;;;;5027410;28;20107;-75
2022/03/19 08:17:29;;;;;;;65.45;40.13;;;9.00;99.90;;;;;;5028265;28;20077;-76
2022/03/19 08:19:59;;;;;;;61.47;38.28;;;9.20;99.90;;;;;;5030268;28;20491;-77
2022/03/19 08:22:26;;;;;;;59.58;37.20;;;9.10;99.90;;;;;;5029953;28;20038;-73
2022/03/19 08:24:53;;;;;;;58.30;35.90;;;9.30;99.90;;;;;;5028453;28;20400;-74
2022/03/19 08:27:19;;;;;;;58.00;35.97;;;9.40;99.90;;;;;;5030493;28;20041;-76
2022/03/19 08:29:45;;;;;;;59.72;35.70;;;9.40;99.90;;;;;;5027481;28;20049;-77
2022/03/19 08:32:11;;;;;;;70.88;42.20;;;9.50;99.90;;;;;;5029211;28;20128;-72
2022/03/19 08:34:38;;;;;;;64.57;39.00;;;9.60;99.90;;;;;;5048706;28;20102;-75
2022/03/19 08:37:06;;;;;;;54.75;35.45;;;9.60;99.90;;;;;;5036823;28;20038;-77
2022/03/19 08:42:17;;;;;;;51.97;34.20;;;10.00;99.90;;;;;;5028555;28;20084;-75
2022/03/19 08:44:43;;;;;;;55.75;34.95;;;10.10;99.90;;;;;;5033601;28;20060;-73
2022/03/19 08:47:09;;;;;;;60.13;37.55;;;10.20;99.90;;;;;;5031732;28;20047;-73
2022/03/19 08:49:34;;;;;;;55.88;35.92;;;10.20;99.90;;;;;;5032237;28;20052;-73
2022/03/19 08:52:00;;;;;;;87.80;38.00;;;10.30;99.90;;;;;;5038612;28;20416;-73
2022/03/19 08:54:26;;;;;;;61.47;38.25;;;10.50;99.90;;;;;;5038198;28;20044;-75
2022/03/19 08:56:52;;;;;;;57.75;36.05;;;10.60;99.90;;;;;;5037785;28;20437;-75
2022/03/19 08:59:21;;;;;;;59.80;38.50;;;10.50;99.90;;;;;;5039754;28;20080;-75
2022/03/19 09:01:50;;;;;;;60.58;38.50;;;10.90;99.90;;;;;;5040403;28;20567;-75
2022/03/19 09:04:17;;;;;;;63.03;38.25;;;11.00;99.90;;;;;;5037967;28;20041;-75
2022/03/19 09:06:43;;;;;;;62.10;36.05;;;11.10;99.90;;;;;;5039097;28;20037;-75
2022/03/19 09:09:11;;;;;;;55.03;35.03;;;11.00;99.90;;;;;;5039960;28;20074;-74
2022/03/19 09:11:37;;;;;;;58.97;37.75;;;11.20;99.90;;;;;;5038126;28;20052;-76
2022/03/19 09:14:05;;;;;;;58.78;36.25;;;11.00;99.90;;;;;;5037126;28;20587;-73
2022/03/19 09:16:32;;;;;;;56.33;36.22;;;11.10;99.90;;;;;;5035283;28;20036;-76
2022/03/19 09:18:58;;;;;;;56.72;35.90;;;11.30;99.90;;;;;;5039148;28;20057;-76
2022/03/19 09:21:24;;;;;;;60.17;36.80;;;11.60;99.90;;;;;;5040133;28;20060;-75
2022/03/19 09:23:50;;;;;;;53.88;34.83;;;11.90;99.90;;;;;;5038448;28;20516;-74
2022/03/19 09:26:17;;;;;;;59.00;35.70;;;11.60;99.90;;;;;;5032390;28;20030;-75
2022/03/19 09:28:45;;;;;;;54.20;35.85;;;11.70;99.90;;;;;;5030039;28;20045;-75
2022/03/19 09:31:13;;;;;;;52.78;33.75;;;11.80;99.90;;;;;;5030391;28;20048;-76
2022/03/19 09:33:40;;;;;;;68.50;38.80;;;12.10;99.90;;;;;;5029881;28;20064;-75
2022/03/19 09:36:06;;;;;;;57.60;35.38;;;12.10;99.90;;;;;;5029319;28;20083;-76
2022/03/19 09:38:32;;;;;;;58.38;35.88;;;12.30;99.90;;;;;;5031555;28;20081;-76
2022/03/19 09:40:59;;;;;;;56.17;34.17;;;12.50;99.90;;;;;;5013849;28;20030;-75
2022/03/19 09:43:26;;;;;;;61.53;36.88;;;12.50;99.90;;;;;;5028087;28;20041;-75
2022/03/19 09:45:52;;;;;;;57.92;35.28;;;12.70;99.90;;;;;;5029031;28;20107;-75
2022/03/19 09:48:19;;;;;;;56.17;34.60;;;12.80;99.90;;;;;;5032366;28;20515;-75
2022/03/19 09:50:49;;;;;;;55.88;36.03;;;12.90;99.90;;;;;;5032513;28;20045;-75
2022/03/19 09:53:19;;;;;;;55.67;35.10;;;12.90;99.90;;;;;;5033205;28;20045;-75
2022/03/19 09:55:46;;;;;;;65.97;36.47;;;13.10;99.90;;;;;;5032755;28;20516;-76
2022/03/19 09:58:13;;;;;;;52.53;35.58;;;13.00;99.90;;;;;;5033740;28;20045;-76
2022/03/19 10:00:40;;;;;;;56.67;36.22;;;13.20;99.90;;;;;;5033442;28;20176;-75
2022/03/19 10:03:10;;;;;;;70.25;37.45;;;13.60;99.90;;;;;;5033456;28;20048;-76
2022/03/19 10:08:36;;;;;;;56.97;36.15;;;13.50;99.90;;;;;;5033349;28;20575;-76
2022/03/19 10:11:04;;;;;;;58.80;35.30;;;13.90;99.90;;;;;;5033448;28;20041;-75
2022/03/19 10:13:30;;;;;;;55.95;35.63;;;13.30;99.90;;;;;;5017687;28;20046;-76
2022/03/19 10:15:56;;;;;;;60.83;37.00;;;13.50;99.90;;;;;;5032747;28;20056;-75
2022/03/19 10:18:29;;;;;;;53.20;34.20;;;13.80;99.90;;;;;;5033268;28;20497;-76
2022/03/19 10:21:00;;;;;;;60.78;35.97;;;14.00;99.90;;;;;;5033211;28;20053;-77
2022/03/19 10:23:39;;;;;;;60.17;34.95;;;13.80;99.90;;;;;;5022037;28;20046;-75
2022/03/19 10:26:06;;;;;;;64.60;37.53;;;14.50;99.90;;;;;;5031874;28;20140;-78
2022/03/19 10:28:34;;;;;;;62.60;38.38;;;13.90;99.90;;;;;;5033174;28;20044;-75
2022/03/19 10:31:00;;;;;;;64.68;37.25;;;13.80;99.90;;;;;;5029611;28;20107;-72
2022/03/19 10:33:30;;;;;;;60.88;37.80;;;13.70;99.90;;;;;;5032509;28;20049;-75
2022/03/19 10:36:07;;;;;;;68.22;39.40;;;13.90;99.90;;;;;;5031388;28;20041;-72
2022/03/19 10:38:42;;;;;;;118.38;67.78;;;13.70;99.90;;;;;;5031329;28;21101;-76
2022/03/19 10:41:11;;;;;;;66.15;38.35;;;13.90;99.90;;;;;;5031424;28;20059;-78
2022/03/19 10:43:38;;;;;;;65.07;37.22;;;13.70;99.90;;;;;;5031210;28;20056;-78
2022/03/19 10:46:04;;;;;;;58.83;36.95;;;13.50;99.90;;;;;;5031670;28;20072;-78
2022/03/19 10:48:30;;;;;;;69.25;38.95;;;13.70;99.90;;;;;;5032098;28;20037;-79
2022/03/19 10:50:57;;;;;;;66.78;38.83;;;13.50;99.90;;;;;;5031937;28;20087;-77
2022/03/19 10:53:25;;;;;;;65.60;37.65;;;13.50;99.90;;;;;;5031603;28;20049;-78
2022/03/19 10:55:52;;;;;;;64.65;36.95;;;13.60;99.90;;;;;;5031065;28;20087;-78
2022/03/19 10:58:20;;;;;;;59.40;37.72;;;13.60;99.90;;;;;;5031833;28;20207;-79
2022/03/19 11:00:50;;;;;;;62.72;37.15;;;13.70;99.90;;;;;;5030729;28;20083;-79
2022/03/19 11:03:24;;;;;;;;;;;13.70;99.90;;;;;;5030554;28;20045;-78
2022/03/19 11:06:05;;;;;;;65.30;38.40;;;13.90;99.90;;;;;;5030585;28;20374;-79
2022/03/19 11:08:37;;;;;;;59.22;36.35;;;13.70;99.90;;;;;;5031736;28;20045;-78
2022/03/19 11:11:11;;;;;;;62.13;36.47;;;13.50;99.90;;;;;;5031576;28;20046;-77
2022/03/19 11:13:44;;;;;;;62.17;36.53;;;13.90;99.90;;;;;;5031470;28;20072;-76
2022/03/19 11:16:14;;;;;;;62.30;37.85;;;13.90;99.90;;;;;;5031084;28;20053;-77
2022/03/19 11:18:42;;;;;;;62.15;37.60;;;13.50;99.90;;;;;;5015139;28;20081;-78
2022/03/19 11:21:09;;;;;;;53.67;35.47;;;13.50;99.90;;;;;;5030787;28;20049;-75
2022/03/19 11:23:58;;;;;;;57.22;36.08;;;13.80;99.90;;;;;;5028962;28;20058;-76
2022/03/19 11:26:28;;;;;;;60.55;37.22;;;13.90;99.90;;;;;;5027854;28;20045;-72
2022/03/19 11:28:55;;;;;;;56.63;37.13;;;13.50;99.90;;;;;;5030849;28;20049;-78
2022/03/19 11:31:29;;;;;;;66.93;35.65;;;13.60;99.90;;;;;;5031208;28;20041;-74
2022/03/19 11:34:13;;;;;;;61.10;37.13;;;13.80;99.90;;;;;;5045530;28;20048;-74
2022/03/19 11:36:58;;;;;;;58.25;34.90;;;13.60;99.90;;;;;;5029988;28;20048;-72
2022/03/19 11:39:26;;;;;;;55.60;35.63;;;14.10;99.90;;;;;;5028991;28;20059;-73
2022/03/19 11:41:52;;;;;;;58.78;34.70;;;13.90;99.90;;;;;;5031104;28;20113;-72
2022/03/19 11:44:24;;;;;;;58.33;34.90;;;14.00;99.90;;;;;;5030933;28;20032;-74
2022/03/19 11:47:01;;;;;;;51.22;33.33;;;14.30;99.90;;;;;;5030121;28;20041;-74
2022/03/19 11:49:48;;;;;;;58.05;36.65;;;14.40;99.90;;;;;;5032260;28;20050;-72
2022/03/19 11:52:24;;;;;;;57.10;34.80;;;14.20;99.90;;;;;;5030261;28;20046;-72
2022/03/19 11:55:03;;;;;;;55.65;36.47;;;13.90;99.90;;;;;;5031994;28;20045;-72
2022/03/19 11:57:46;;;;;;;53.00;30.85;;;13.90;99.90;;;;;;5032183;28;20037;-72
2022/03/19 12:00:18;;;;;;;52.47;30.77;;;14.30;99.90;;;;;;5028267;28;20053;-72
2022/03/19 12:03:11;;;;;;;52.08;30.23;;;14.40;99.90;;;;;;5030623;28;20036;-71
2022/03/19 12:05:46;;;;;;;46.88;28.95;;;14.10;99.90;;;;;;5030665;28;20444;-75
2022/03/19 12:08:23;;;;;;;52.35;31.38;;;14.20;99.90;;;;;;5027544;28;20049;-71
2022/03/19 12:10:54;;;;;;;46.20;29.30;;;13.90;99.90;;;;;;5010535;28;20073;-71
2022/03/19 12:13:26;;;;;;;56.50;33.28;;;13.70;99.90;;;;;;5010923;28;20053;-72
2022/03/19 12:15:53;;;;;;;49.05;31.02;;;13.50;99.90;;;;;;5011377;28;20069;-71
2022/03/19 12:18:29;;;;;;;51.63;30.35;;;13.50;99.90;;;;;;5010903;28;20372;-73
2022/03/19 12:20:58;;;;;;;50.45;30.33;;;13.80;99.90;;;;;;5010515;28;20037;-72
2022/03/19 12:23:27;;;;;;;52.13;30.50;;;13.90;99.90;;;;;;5011248;28;20037;-72
2022/03/19 12:26:01;;;;;;;51.53;31.00;;;14.20;99.90;;;;;;5030541;28;20319;-74
2022/03/19 12:28:28;;;;;;;50.65;32.40;;;14.00;99.90;;;;;;5030723;28;20073;-74
2022/03/19 12:30:54;;;;;;;56.22;31.48;;;13.60;99.90;;;;;;5030430;28;20033;-73
2022/03/19 12:33:30;;;;;;;47.75;31.40;;;13.70;99.90;;;;;;5030535;28;20479;-72
2022/03/19 12:35:58;;;;;;;59.45;33.20;;;13.80;99.90;;;;;;5029961;28;20036;-73
2022/03/19 12:38:32;;;;;;;56.17;33.10;;;13.70;99.90;;;;;;5030534;28;20049;-75
2022/03/19 12:43:43;;;;;;;51.92;31.52;;;13.50;99.90;;;;;;5030358;28;20112;-73
2022/03/19 12:46:09;;;;;;;52.08;31.88;;;13.90;99.90;;;;;;5031168;28;20052;-72
2022/03/19 12:48:39;;;;;;;54.67;31.33;;;13.90;99.90;;;;;;5035054;28;20064;-75
2022/03/19 12:51:05;;;;;;;96.85;70.75;;;14.10;99.90;;;;;;5049139;28;20044;-72
2022/03/19 12:53:37;;;;;;;50.42;31.10;;;14.20;99.90;;;;;;5038395;28;20048;-74